sensor_id;sensor_type;location;lat;lon;timestamp;temperature;humidity
3005;DHT22;1512;51.486;6.610;2023-06-14T00:04:05;20.30;99.90
3005;DHT22;1512;51.486;6.610;2023-06-14T00:08:15;20.20;99.90
3005;DHT22;1512;51.486;6.610;2023-06-14T00:12:24;20.10;99.90
3005;DHT22;1512;51.486;6.610;2023-06-14T00:16:32;20.10;99.90
3005;DHT22;1512;51.486;6.610;2023-06-14T00:20:42;20.10;99.90
3005;DHT22;1512;51.486;6.610;2023-06-14T00:24:52;20.10;99.90
3005;DHT22;1512;51.486;6.610;2023-06-14T00:29:02;20.10;99.90
3005;DHT22;1512;51.486;6.610;2023-06-14T00:33:11;20.10;99.90
3005;DHT22;1512;51.486;6.610;2023-06-14T00:37:20;20.00;99.90
3005;DHT22;1512;51.486;6.610;2023-06-14T00:41:28;19.90;99.90
3005;DHT22;1512;51.486;6.610;2023-06-14T00:45:37;19.90;99.90
3005;DHT22;1512;51.486;6.610;2023-06-14T00:49:47;19.70;99.90
3005;DHT22;1512;51.486;6.610;2023-06-14T00:53:56;19.60;99.90
3005;DHT22;1512;51.486;6.610;2023-06-14T00:58:05;19.40;99.90
3005;DHT22;1512;51.486;6.610;2023-06-14T01:02:14;19.40;99.90
3005;DHT22;1512;51.486;6.610;2023-06-14T01:06:31;19.30;99.90
3005;DHT22;1512;51.486;6.610;2023-06-14T01:10:56;19.30;99.90
3005;DHT22;1512;51.486;6.610;2023-06-14T01:15:04;19.30;99.90
3005;DHT22;1512;51.486;6.610;2023-06-14T01:19:14;19.30;99.90
3005;DHT22;1512;51.486;6.610;2023-06-14T01:23:25;19.30;99.90
3005;DHT22;1512;51.486;6.610;2023-06-14T01:27:35;19.40;99.90
3005;DHT22;1512;51.486;6.610;2023-06-14T01:31:44;19.30;99.90
3005;DHT22;1512;51.486;6.610;2023-06-14T01:35:55;19.30;99.90
3005;DHT22;1512;51.486;6.610;2023-06-14T01:40:05;19.30;99.90
3005;DHT22;1512;51.486;6.610;2023-06-14T01:44:16;19.30;99.90
3005;DHT22;1512;51.486;6.610;2023-06-14T01:48:26;19.20;99.90
3005;DHT22;1512;51.486;6.610;2023-06-14T01:52:34;19.20;99.90
3005;DHT22;1512;51.486;6.610;2023-06-14T01:56:43;19.20;99.90
3005;DHT22;1512;51.486;6.610;2023-06-14T02:00:52;19.20;99.90
3005;DHT22;1512;51.486;6.610;2023-06-14T02:05:03;19.20;99.90
3005;DHT22;1512;51.486;6.610;2023-06-14T02:09:12;19.20;99.90
3005;DHT22;1512;51.486;6.610;2023-06-14T02:13:21;19.10;99.90
3005;DHT22;1512;51.486;6.610;2023-06-14T02:17:30;19.00;99.90
3005;DHT22;1512;51.486;6.610;2023-06-14T02:21:39;18.90;99.90
3005;DHT22;1512;51.486;6.610;2023-06-14T02:25:47;18.90;99.90
3005;DHT22;1512;51.486;6.610;2023-06-14T02:29:56;18.90;99.90
3005;DHT22;1512;51.486;6.610;2023-06-14T02:34:05;18.80;99.90
3005;DHT22;1512;51.486;6.610;2023-06-14T02:38:15;18.80;99.90
3005;DHT22;1512;51.486;6.610;2023-06-14T02:42:24;18.80;99.90
3005;DHT22;1512;51.486;6.610;2023-06-14T02:46:33;18.80;99.90
3005;DHT22;1512;51.486;6.610;2023-06-14T02:50:42;18.70;99.90
3005;DHT22;1512;51.486;6.610;2023-06-14T02:54:51;18.60;99.90
3005;DHT22;1512;51.486;6.610;2023-06-14T02:59:00;18.60;99.90
3005;DHT22;1512;51.486;6.610;2023-06-14T03:03:09;18.50;99.90
3005;DHT22;1512;51.486;6.610;2023-06-14T03:07:19;18.50;99.90
3005;DHT22;1512;51.486;6.610;2023-06-14T03:11:28;18.50;99.90
3005;DHT22;1512;51.486;6.610;2023-06-14T03:15:37;18.50;99.90
3005;DHT22;1512;51.486;6.610;2023-06-14T03:19:48;18.40;99.90
3005;DHT22;1512;51.486;6.610;2023-06-14T03:23:57;18.30;99.90
3005;DHT22;1512;51.486;6.610;2023-06-14T03:28:05;18.30;99.90
3005;DHT22;1512;51.486;6.610;2023-06-14T03:32:14;18.20;99.90
3005;DHT22;1512;51.486;6.610;2023-06-14T03:36:23;18.20;99.90
3005;DHT22;1512;51.486;6.610;2023-06-14T03:44:48;18.20;99.90
3005;DHT22;1512;51.486;6.610;2023-06-14T03:48:57;18.20;99.90
3005;DHT22;1512;51.486;6.610;2023-06-14T03:53:06;18.20;99.90
3005;DHT22;1512;51.486;6.610;2023-06-14T03:57:15;18.20;99.90
3005;DHT22;1512;51.486;6.610;2023-06-14T04:01:25;18.10;99.90
3005;DHT22;1512;51.486;6.610;2023-06-14T04:05:37;18.10;99.90
3005;DHT22;1512;51.486;6.610;2023-06-14T04:09:48;18.00;99.90
3005;DHT22;1512;51.486;6.610;2023-06-14T04:13:57;17.90;99.90
3005;DHT22;1512;51.486;6.610;2023-06-14T04:18:08;17.80;99.90
3005;DHT22;1512;51.486;6.610;2023-06-14T04:22:17;17.80;99.90
3005;DHT22;1512;51.486;6.610;2023-06-14T04:26:26;17.80;99.90
3005;DHT22;1512;51.486;6.610;2023-06-14T04:30:38;17.80;99.90
3005;DHT22;1512;51.486;6.610;2023-06-14T04:34:48;17.90;99.90
3005;DHT22;1512;51.486;6.610;2023-06-14T04:38:58;17.90;99.90
3005;DHT22;1512;51.486;6.610;2023-06-14T04:43:08;17.90;99.90
3005;DHT22;1512;51.486;6.610;2023-06-14T04:47:18;17.80;99.90
3005;DHT22;1512;51.486;6.610;2023-06-14T04:51:28;17.90;99.90
3005;DHT22;1512;51.486;6.610;2023-06-14T04:55:45;18.00;99.90
3005;DHT22;1512;51.486;6.610;2023-06-14T04:59:55;18.00;99.90
3005;DHT22;1512;51.486;6.610;2023-06-14T05:04:05;18.10;99.90
3005;DHT22;1512;51.486;6.610;2023-06-14T05:08:14;18.10;99.90
3005;DHT22;1512;51.486;6.610;2023-06-14T05:12:23;18.20;99.90
3005;DHT22;1512;51.486;6.610;2023-06-14T05:16:32;18.30;99.90
3005;DHT22;1512;51.486;6.610;2023-06-14T05:20:41;18.30;99.90
3005;DHT22;1512;51.486;6.610;2023-06-14T05:24:49;18.60;99.90
3005;DHT22;1512;51.486;6.610;2023-06-14T05:28:58;18.60;99.90
3005;DHT22;1512;51.486;6.610;2023-06-14T05:33:09;18.60;99.90
3005;DHT22;1512;51.486;6.610;2023-06-14T05:37:17;18.70;99.90
3005;DHT22;1512;51.486;6.610;2023-06-14T05:41:26;18.90;99.90
3005;DHT22;1512;51.486;6.610;2023-06-14T05:50:44;19.10;99.90
3005;DHT22;1512;51.486;6.610;2023-06-14T05:54:53;19.10;99.90
3005;DHT22;1512;51.486;6.610;2023-06-14T05:59:02;19.30;99.90
3005;DHT22;1512;51.486;6.610;2023-06-14T06:03:10;19.30;99.90
3005;DHT22;1512;51.486;6.610;2023-06-14T06:07:21;19.40;99.90
3005;DHT22;1512;51.486;6.610;2023-06-14T06:11:29;19.60;99.90
3005;DHT22;1512;51.486;6.610;2023-06-14T06:15:40;19.70;99.90
3005;DHT22;1512;51.486;6.610;2023-06-14T06:19:48;19.70;99.90
3005;DHT22;1512;51.486;6.610;2023-06-14T06:23:57;20.00;99.90
3005;DHT22;1512;51.486;6.610;2023-06-14T06:28:06;20.20;99.90
3005;DHT22;1512;51.486;6.610;2023-06-14T06:32:17;20.40;99.90
3005;DHT22;1512;51.486;6.610;2023-06-14T06:36:26;20.50;99.90
3005;DHT22;1512;51.486;6.610;2023-06-14T06:40:35;20.70;99.90
3005;DHT22;1512;51.486;6.610;2023-06-14T06:44:44;20.90;99.90
3005;DHT22;1512;51.486;6.610;2023-06-14T06:48:53;21.00;99.90
3005;DHT22;1512;51.486;6.610;2023-06-14T06:53:02;21.10;99.90
3005;DHT22;1512;51.486;6.610;2023-06-14T06:57:11;21.00;99.90
3005;DHT22;1512;51.486;6.610;2023-06-14T07:01:20;21.10;99.90
3005;DHT22;1512;51.486;6.610;2023-06-14T07:05:29;21.30;99.90
3005;DHT22;1512;51.486;6.610;2023-06-14T07:09:38;21.30;99.90
3005;DHT22;1512;51.486;6.610;2023-06-14T07:13:48;21.40;99.90
3005;DHT22;1512;51.486;6.610;2023-06-14T07:17:56;21.50;99.90
3005;DHT22;1512;51.486;6.610;2023-06-14T07:22:07;21.70;99.90
3005;DHT22;1512;51.486;6.610;2023-06-14T07:26:16;21.80;99.90
3005;DHT22;1512;51.486;6.610;2023-06-14T07:30:25;21.90;99.90
3005;DHT22;1512;51.486;6.610;2023-06-14T07:34:34;22.00;99.90
3005;DHT22;1512;51.486;6.610;2023-06-14T07:38:43;22.10;99.90
3005;DHT22;1512;51.486;6.610;2023-06-14T07:42:52;22.20;99.90
3005;DHT22;1512;51.486;6.610;2023-06-14T07:47:02;22.30;99.90
3005;DHT22;1512;51.486;6.610;2023-06-14T07:51:11;22.40;99.90
3005;DHT22;1512;51.486;6.610;2023-06-14T07:55:20;22.40;99.90
3005;DHT22;1512;51.486;6.610;2023-06-14T07:59:28;22.50;99.90
3005;DHT22;1512;51.486;6.610;2023-06-14T08:03:37;22.50;99.90
3005;DHT22;1512;51.486;6.610;2023-06-14T08:07:46;22.70;99.90
3005;DHT22;1512;51.486;6.610;2023-06-14T08:11:55;22.90;99.90
3005;DHT22;1512;51.486;6.610;2023-06-14T08:16:04;22.90;99.90
3005;DHT22;1512;51.486;6.610;2023-06-14T08:20:13;23.00;99.90
3005;DHT22;1512;51.486;6.610;2023-06-14T08:24:23;23.10;99.90
3005;DHT22;1512;51.486;6.610;2023-06-14T08:28:32;23.00;99.90
3005;DHT22;1512;51.486;6.610;2023-06-14T08:32:41;23.00;99.90
3005;DHT22;1512;51.486;6.610;2023-06-14T08:36:52;23.20;99.90
3005;DHT22;1512;51.486;6.610;2023-06-14T08:41:01;23.30;99.90
3005;DHT22;1512;51.486;6.610;2023-06-14T08:45:11;23.40;99.90
3005;DHT22;1512;51.486;6.610;2023-06-14T08:49:20;23.50;99.90
3005;DHT22;1512;51.486;6.610;2023-06-14T08:53:32;23.70;99.90
3005;DHT22;1512;51.486;6.610;2023-06-14T09:02:13;23.70;99.90
3005;DHT22;1512;51.486;6.610;2023-06-14T09:06:22;23.70;99.90
3005;DHT22;1512;51.486;6.610;2023-06-14T09:10:32;23.70;99.90
3005;DHT22;1512;51.486;6.610;2023-06-14T09:14:42;23.80;99.90
3005;DHT22;1512;51.486;6.610;2023-06-14T09:18:51;23.80;99.90
3005;DHT22;1512;51.486;6.610;2023-06-14T09:23:01;24.00;99.90
3005;DHT22;1512;51.486;6.610;2023-06-14T09:27:14;24.10;99.90
3005;DHT22;1512;51.486;6.610;2023-06-14T09:31:21;24.00;99.90
3005;DHT22;1512;51.486;6.610;2023-06-14T09:35:33;24.10;99.90
3005;DHT22;1512;51.486;6.610;2023-06-14T09:48:21;24.20;99.90
3005;DHT22;1512;51.486;6.610;2023-06-14T09:52:30;24.10;99.90
3005;DHT22;1512;51.486;6.610;2023-06-14T09:56:41;24.30;99.90
3005;DHT22;1512;51.486;6.610;2023-06-14T10:00:50;24.40;99.90
3005;DHT22;1512;51.486;6.610;2023-06-14T10:05:08;24.50;99.90
3005;DHT22;1512;51.486;6.610;2023-06-14T10:09:17;24.50;99.90
3005;DHT22;1512;51.486;6.610;2023-06-14T10:13:27;24.50;99.90
3005;DHT22;1512;51.486;6.610;2023-06-14T10:17:43;24.60;99.90
3005;DHT22;1512;51.486;6.610;2023-06-14T10:22:19;24.60;99.90
3005;DHT22;1512;51.486;6.610;2023-06-14T10:26:30;24.70;99.90
3005;DHT22;1512;51.486;6.610;2023-06-14T10:30:38;24.70;99.90
3005;DHT22;1512;51.486;6.610;2023-06-14T10:34:59;24.70;99.90
3005;DHT22;1512;51.486;6.610;2023-06-14T10:39:16;24.80;99.90
3005;DHT22;1512;51.486;6.610;2023-06-14T10:43:25;24.90;99.90
3005;DHT22;1512;51.486;6.610;2023-06-14T10:47:34;24.90;99.90
3005;DHT22;1512;51.486;6.610;2023-06-14T10:51:49;24.90;99.90
3005;DHT22;1512;51.486;6.610;2023-06-14T10:55:57;24.90;99.90
3005;DHT22;1512;51.486;6.610;2023-06-14T11:00:08;25.00;99.90
3005;DHT22;1512;51.486;6.610;2023-06-14T11:04:21;25.10;99.90
3005;DHT22;1512;51.486;6.610;2023-06-14T11:13:00;25.20;99.90
3005;DHT22;1512;51.486;6.610;2023-06-14T11:17:08;25.30;99.90
3005;DHT22;1512;51.486;6.610;2023-06-14T11:21:17;25.50;99.90
3005;DHT22;1512;51.486;6.610;2023-06-14T11:25:27;25.30;99.90
3005;DHT22;1512;51.486;6.610;2023-06-14T11:29:36;25.30;99.90
3005;DHT22;1512;51.486;6.610;2023-06-14T11:33:49;25.30;99.90
3005;DHT22;1512;51.486;6.610;2023-06-14T11:37:57;25.70;99.90
3005;DHT22;1512;51.486;6.610;2023-06-14T11:42:06;25.70;99.90
3005;DHT22;1512;51.486;6.610;2023-06-14T11:46:15;25.70;99.90
3005;DHT22;1512;51.486;6.610;2023-06-14T11:50:25;25.80;99.90
3005;DHT22;1512;51.486;6.610;2023-06-14T11:54:36;26.10;99.90
3005;DHT22;1512;51.486;6.610;2023-06-14T11:58:45;26.00;99.90
3005;DHT22;1512;51.486;6.610;2023-06-14T12:02:55;26.20;99.90
3005;DHT22;1512;51.486;6.610;2023-06-14T12:07:09;26.30;99.90
3005;DHT22;1512;51.486;6.610;2023-06-14T12:11:23;26.20;99.90
3005;DHT22;1512;51.486;6.610;2023-06-14T12:15:32;26.10;99.90
3005;DHT22;1512;51.486;6.610;2023-06-14T12:19:48;26.30;99.90
3005;DHT22;1512;51.486;6.610;2023-06-14T12:23:57;26.60;99.90
3005;DHT22;1512;51.486;6.610;2023-06-14T12:28:07;26.70;99.90
3005;DHT22;1512;51.486;6.610;2023-06-14T12:32:17;26.40;99.90
3005;DHT22;1512;51.486;6.610;2023-06-14T12:36:28;26.40;99.90
3005;DHT22;1512;51.486;6.610;2023-06-14T12:40:37;26.50;99.90
3005;DHT22;1512;51.486;6.610;2023-06-14T12:44:47;26.50;99.90
3005;DHT22;1512;51.486;6.610;2023-06-14T12:48:55;26.60;99.90
3005;DHT22;1512;51.486;6.610;2023-06-14T12:53:04;26.80;99.90
3005;DHT22;1512;51.486;6.610;2023-06-14T12:57:13;27.00;99.90
3005;DHT22;1512;51.486;6.610;2023-06-14T13:01:22;26.90;99.90
3005;DHT22;1512;51.486;6.610;2023-06-14T13:05:31;27.00;99.90
3005;DHT22;1512;51.486;6.610;2023-06-14T13:09:41;26.90;99.90
3005;DHT22;1512;51.486;6.610;2023-06-14T13:13:50;27.00;99.90
3005;DHT22;1512;51.486;6.610;2023-06-14T13:17:59;27.10;99.90
3005;DHT22;1512;51.486;6.610;2023-06-14T13:22:08;27.10;99.90
3005;DHT22;1512;51.486;6.610;2023-06-14T13:26:17;26.90;99.90
3005;DHT22;1512;51.486;6.610;2023-06-14T13:30:26;27.00;99.90
3005;DHT22;1512;51.486;6.610;2023-06-14T13:34:35;27.30;99.90
3005;DHT22;1512;51.486;6.610;2023-06-14T13:38:43;27.30;99.90
3005;DHT22;1512;51.486;6.610;2023-06-14T13:42:54;27.50;99.90
3005;DHT22;1512;51.486;6.610;2023-06-14T13:47:03;27.70;99.90
3005;DHT22;1512;51.486;6.610;2023-06-14T13:51:11;27.60;99.90
3005;DHT22;1512;51.486;6.610;2023-06-14T13:55:20;27.40;99.90
3005;DHT22;1512;51.486;6.610;2023-06-14T13:59:29;27.40;99.90
3005;DHT22;1512;51.486;6.610;2023-06-14T14:03:38;27.50;99.90
3005;DHT22;1512;51.486;6.610;2023-06-14T14:07:47;27.80;99.90
3005;DHT22;1512;51.486;6.610;2023-06-14T14:11:57;27.80;99.90
3005;DHT22;1512;51.486;6.610;2023-06-14T14:16:06;27.60;99.90
3005;DHT22;1512;51.486;6.610;2023-06-14T14:20:15;27.50;99.90
3005;DHT22;1512;51.486;6.610;2023-06-14T14:24:25;27.40;99.90
3005;DHT22;1512;51.486;6.610;2023-06-14T14:28:33;27.50;99.90
3005;DHT22;1512;51.486;6.610;2023-06-14T14:32:42;27.50;99.90
3005;DHT22;1512;51.486;6.610;2023-06-14T14:36:52;27.50;99.90
3005;DHT22;1512;51.486;6.610;2023-06-14T14:41:01;27.30;99.90
3005;DHT22;1512;51.486;6.610;2023-06-14T14:45:10;27.40;99.90
3005;DHT22;1512;51.486;6.610;2023-06-14T14:49:19;27.30;99.90
3005;DHT22;1512;51.486;6.610;2023-06-14T14:53:28;27.20;99.90
3005;DHT22;1512;51.486;6.610;2023-06-14T14:57:37;27.50;99.90
3005;DHT22;1512;51.486;6.610;2023-06-14T15:01:45;27.30;99.90
3005;DHT22;1512;51.486;6.610;2023-06-14T15:05:54;27.40;99.90
3005;DHT22;1512;51.486;6.610;2023-06-14T15:10:05;27.50;99.90
3005;DHT22;1512;51.486;6.610;2023-06-14T15:14:13;27.70;99.90
3005;DHT22;1512;51.486;6.610;2023-06-14T15:18:22;27.70;99.90
3005;DHT22;1512;51.486;6.610;2023-06-14T15:22:31;27.60;99.90
3005;DHT22;1512;51.486;6.610;2023-06-14T15:26:40;27.60;99.90
3005;DHT22;1512;51.486;6.610;2023-06-14T15:30:48;27.60;99.90
3005;DHT22;1512;51.486;6.610;2023-06-14T15:34:57;27.50;99.90
3005;DHT22;1512;51.486;6.610;2023-06-14T15:39:06;27.50;99.90
3005;DHT22;1512;51.486;6.610;2023-06-14T15:43:14;27.50;99.90
3005;DHT22;1512;51.486;6.610;2023-06-14T15:47:23;27.40;99.90
3005;DHT22;1512;51.486;6.610;2023-06-14T15:51:32;27.40;99.90
3005;DHT22;1512;51.486;6.610;2023-06-14T15:55:41;27.30;99.90
3005;DHT22;1512;51.486;6.610;2023-06-14T15:59:50;27.00;99.90
3005;DHT22;1512;51.486;6.610;2023-06-14T16:03:59;27.00;99.90
3005;DHT22;1512;51.486;6.610;2023-06-14T16:08:07;26.80;99.90
3005;DHT22;1512;51.486;6.610;2023-06-14T16:12:16;26.90;99.90
3005;DHT22;1512;51.486;6.610;2023-06-14T16:16:25;27.00;99.90
3005;DHT22;1512;51.486;6.610;2023-06-14T16:20:35;27.10;99.90
3005;DHT22;1512;51.486;6.610;2023-06-14T16:24:44;27.00;99.90
3005;DHT22;1512;51.486;6.610;2023-06-14T16:28:53;26.70;99.90
3005;DHT22;1512;51.486;6.610;2023-06-14T16:33:01;26.70;99.90
3005;DHT22;1512;51.486;6.610;2023-06-14T16:37:10;26.60;99.90
3005;DHT22;1512;51.486;6.610;2023-06-14T16:41:19;26.60;99.90
3005;DHT22;1512;51.486;6.610;2023-06-14T16:45:28;26.60;99.90
3005;DHT22;1512;51.486;6.610;2023-06-14T16:49:37;26.60;99.90
3005;DHT22;1512;51.486;6.610;2023-06-14T16:53:45;26.40;99.90
3005;DHT22;1512;51.486;6.610;2023-06-14T16:57:54;26.50;99.90
3005;DHT22;1512;51.486;6.610;2023-06-14T17:06:32;26.30;99.90
3005;DHT22;1512;51.486;6.610;2023-06-14T17:10:41;26.30;99.90
3005;DHT22;1512;51.486;6.610;2023-06-14T17:14:50;26.20;99.90
3005;DHT22;1512;51.486;6.610;2023-06-14T17:18:59;26.20;99.90
3005;DHT22;1512;51.486;6.610;2023-06-14T17:23:08;26.20;99.90
3005;DHT22;1512;51.486;6.610;2023-06-14T17:27:17;26.00;99.90
3005;DHT22;1512;51.486;6.610;2023-06-14T17:31:26;25.90;99.90
3005;DHT22;1512;51.486;6.610;2023-06-14T17:35:35;25.90;99.90
3005;DHT22;1512;51.486;6.610;2023-06-14T17:39:45;25.80;99.90
3005;DHT22;1512;51.486;6.610;2023-06-14T17:43:53;25.70;99.90
3005;DHT22;1512;51.486;6.610;2023-06-14T17:48:02;25.60;99.90
3005;DHT22;1512;51.486;6.610;2023-06-14T17:52:11;25.60;99.90
3005;DHT22;1512;51.486;6.610;2023-06-14T17:56:22;25.60;99.90
3005;DHT22;1512;51.486;6.610;2023-06-14T18:00:34;25.40;99.90
3005;DHT22;1512;51.486;6.610;2023-06-14T18:04:42;25.30;99.90
3005;DHT22;1512;51.486;6.610;2023-06-14T18:08:52;25.20;99.90
3005;DHT22;1512;51.486;6.610;2023-06-14T18:13:01;25.10;99.90
3005;DHT22;1512;51.486;6.610;2023-06-14T18:17:09;24.90;99.90
3005;DHT22;1512;51.486;6.610;2023-06-14T18:21:19;24.80;99.90
3005;DHT22;1512;51.486;6.610;2023-06-14T18:25:28;24.60;99.90
3005;DHT22;1512;51.486;6.610;2023-06-14T18:29:37;24.50;99.90
3005;DHT22;1512;51.486;6.610;2023-06-14T18:33:46;24.40;99.90
3005;DHT22;1512;51.486;6.610;2023-06-14T18:37:54;24.30;99.90
3005;DHT22;1512;51.486;6.610;2023-06-14T18:42:03;24.10;99.90
3005;DHT22;1512;51.486;6.610;2023-06-14T18:46:13;24.00;99.90
3005;DHT22;1512;51.486;6.610;2023-06-14T18:50:22;23.90;99.90
3005;DHT22;1512;51.486;6.610;2023-06-14T18:54:31;23.80;99.90
3005;DHT22;1512;51.486;6.610;2023-06-14T18:58:39;23.90;99.90
3005;DHT22;1512;51.486;6.610;2023-06-14T19:02:48;23.70;99.90
3005;DHT22;1512;51.486;6.610;2023-06-14T19:06:57;23.60;99.90
3005;DHT22;1512;51.486;6.610;2023-06-14T19:11:06;23.50;99.90
3005;DHT22;1512;51.486;6.610;2023-06-14T19:15:16;23.40;99.90
3005;DHT22;1512;51.486;6.610;2023-06-14T19:19:26;23.40;99.90
3005;DHT22;1512;51.486;6.610;2023-06-14T19:23:34;23.30;99.90
3005;DHT22;1512;51.486;6.610;2023-06-14T19:27:46;23.30;99.90
3005;DHT22;1512;51.486;6.610;2023-06-14T19:31:55;23.10;99.90
3005;DHT22;1512;51.486;6.610;2023-06-14T19:36:04;23.00;99.90
3005;DHT22;1512;51.486;6.610;2023-06-14T19:40:13;23.10;99.90
3005;DHT22;1512;51.486;6.610;2023-06-14T19:44:23;23.00;99.90
3005;DHT22;1512;51.486;6.610;2023-06-14T19:48:32;22.90;99.90
3005;DHT22;1512;51.486;6.610;2023-06-14T19:52:40;22.70;99.90
3005;DHT22;1512;51.486;6.610;2023-06-14T19:56:49;22.70;99.90
3005;DHT22;1512;51.486;6.610;2023-06-14T20:00:58;22.50;99.90
3005;DHT22;1512;51.486;6.610;2023-06-14T20:05:07;22.50;99.90
3005;DHT22;1512;51.486;6.610;2023-06-14T20:09:16;22.50;99.90
3005;DHT22;1512;51.486;6.610;2023-06-14T20:13:26;22.40;99.90
3005;DHT22;1512;51.486;6.610;2023-06-14T20:17:35;22.40;99.90
3005;DHT22;1512;51.486;6.610;2023-06-14T20:21:44;22.30;99.90
3005;DHT22;1512;51.486;6.610;2023-06-14T20:25:53;22.30;99.90
3005;DHT22;1512;51.486;6.610;2023-06-14T20:30:02;22.20;99.90
3005;DHT22;1512;51.486;6.610;2023-06-14T20:34:11;22.20;99.90
3005;DHT22;1512;51.486;6.610;2023-06-14T20:38:20;22.00;99.90
3005;DHT22;1512;51.486;6.610;2023-06-14T20:42:31;21.90;99.90
3005;DHT22;1512;51.486;6.610;2023-06-14T20:46:41;21.90;99.90
3005;DHT22;1512;51.486;6.610;2023-06-14T20:50:53;21.90;99.90
3005;DHT22;1512;51.486;6.610;2023-06-14T21:00:11;21.90;99.90
3005;DHT22;1512;51.486;6.610;2023-06-14T21:04:21;21.80;99.90
3005;DHT22;1512;51.486;6.610;2023-06-14T21:08:30;21.70;99.90
3005;DHT22;1512;51.486;6.610;2023-06-14T21:12:39;21.60;99.90
3005;DHT22;1512;51.486;6.610;2023-06-14T21:16:48;21.50;99.90
3005;DHT22;1512;51.486;6.610;2023-06-14T21:20:57;21.40;99.90
3005;DHT22;1512;51.486;6.610;2023-06-14T21:25:06;21.30;99.90
3005;DHT22;1512;51.486;6.610;2023-06-14T21:29:15;21.30;99.90
3005;DHT22;1512;51.486;6.610;2023-06-14T21:33:24;21.20;99.90
3005;DHT22;1512;51.486;6.610;2023-06-14T21:37:32;21.10;99.90
3005;DHT22;1512;51.486;6.610;2023-06-14T21:42:14;21.00;99.90
3005;DHT22;1512;51.486;6.610;2023-06-14T21:46:23;21.00;99.90
3005;DHT22;1512;51.486;6.610;2023-06-14T21:50:32;20.90;99.90
3005;DHT22;1512;51.486;6.610;2023-06-14T21:54:43;20.80;99.90
3005;DHT22;1512;51.486;6.610;2023-06-14T21:58:52;20.70;99.90
3005;DHT22;1512;51.486;6.610;2023-06-14T22:03:01;20.70;99.90
3005;DHT22;1512;51.486;6.610;2023-06-14T22:07:10;20.60;99.90
3005;DHT22;1512;51.486;6.610;2023-06-14T22:11:26;20.50;99.90
3005;DHT22;1512;51.486;6.610;2023-06-14T22:15:37;20.40;99.90
3005;DHT22;1512;51.486;6.610;2023-06-14T22:19:45;20.40;99.90
3005;DHT22;1512;51.486;6.610;2023-06-14T22:23:56;20.40;99.90
3005;DHT22;1512;51.486;6.610;2023-06-14T22:28:04;20.30;99.90
3005;DHT22;1512;51.486;6.610;2023-06-14T22:32:14;20.30;99.90
3005;DHT22;1512;51.486;6.610;2023-06-14T22:36:24;20.20;99.90
3005;DHT22;1512;51.486;6.610;2023-06-14T22:40:33;20.10;99.90
3005;DHT22;1512;51.486;6.610;2023-06-14T22:44:41;19.90;99.90
3005;DHT22;1512;51.486;6.610;2023-06-14T22:48:52;19.90;99.90
3005;DHT22;1512;51.486;6.610;2023-06-14T22:53:01;19.90;99.90
3005;DHT22;1512;51.486;6.610;2023-06-14T22:57:12;19.80;99.90
3005;DHT22;1512;51.486;6.610;2023-06-14T23:01:22;19.70;99.90
3005;DHT22;1512;51.486;6.610;2023-06-14T23:05:34;19.80;99.90
3005;DHT22;1512;51.486;6.610;2023-06-14T23:09:44;19.70;99.90
3005;DHT22;1512;51.486;6.610;2023-06-14T23:13:53;19.70;99.90
3005;DHT22;1512;51.486;6.610;2023-06-14T23:18:02;19.70;99.90
3005;DHT22;1512;51.486;6.610;2023-06-14T23:22:10;19.70;99.90
3005;DHT22;1512;51.486;6.610;2023-06-14T23:26:21;19.70;99.90
3005;DHT22;1512;51.486;6.610;2023-06-14T23:30:31;19.60;99.90
3005;DHT22;1512;51.486;6.610;2023-06-14T23:34:41;19.50;99.90
3005;DHT22;1512;51.486;6.610;2023-06-14T23:38:51;19.40;99.90
3005;DHT22;1512;51.486;6.610;2023-06-14T23:43:00;19.30;99.90
3005;DHT22;1512;51.486;6.610;2023-06-14T23:47:10;19.30;99.90
3005;DHT22;1512;51.486;6.610;2023-06-14T23:51:19;19.30;99.90
3005;DHT22;1512;51.486;6.610;2023-06-14T23:55:29;19.20;99.90
3005;DHT22;1512;51.486;6.610;2023-06-14T23:59:37;19.20;99.90
